Cedar Bluff, Alabama
Current Conditions -  °F | °C
As of 1:35 PM on Thursday 23 Oct 2014 (Local Time) from K4A9 Reporting Station
Clear Clear  
Wind Chill: 66°   Ceiling: Unl
Heat Index: 66°   Visibility: 10mi
Dew Point: 36°   Wind: 5mph
Humidity: 32%   Direction: 60°ENE
Pressure: 30.08"   Gusts: NA
Location:  34.22°N, 85.61°W
Report Text: K4A9 231835Z AUTO 06004KT 10SM CLR 19/02 A3008 RMK AO2
Loading
Personal Weather Stations






























Interactive Weather Map
Tropical Storm Tracking
New forecast layout! Learn more

10-Day Weather Forecast

Advertisements
Track Severe Weather on mobile